createdAt,value
2022-07-26T00:01:36.801Z,20.17
2022-07-26T00:05:38.819Z,20.19
2022-07-26T00:09:43.762Z,19.80
2022-07-26T00:13:48.300Z,19.98
2022-07-26T00:17:49.744Z,20.01
2022-07-26T00:22:11.183Z,20.17
2022-07-26T00:26:12.682Z,20.13
2022-07-26T00:30:14.375Z,20.14
2022-07-26T00:34:15.811Z,20.10
2022-07-26T00:38:18.228Z,20.13
2022-07-26T00:42:20.016Z,20.03
2022-07-26T00:46:21.548Z,19.97
2022-07-26T00:50:23.040Z,20.00
2022-07-26T00:54:24.677Z,19.93
2022-07-26T00:58:26.141Z,19.78
2022-07-26T01:02:27.672Z,19.56
2022-07-26T01:06:29.251Z,19.59
2022-07-26T01:10:30.759Z,19.79
2022-07-26T01:14:32.257Z,19.91
2022-07-26T01:18:33.709Z,19.87
2022-07-26T01:22:35.529Z,19.84
2022-07-26T01:26:37.034Z,19.60
2022-07-26T01:30:38.703Z,19.54
2022-07-26T01:34:40.238Z,19.11
2022-07-26T01:38:42.276Z,19.10
2022-07-26T01:42:43.757Z,19.26
2022-07-26T01:46:45.213Z,19.08
2022-07-26T01:50:46.765Z,19.23
2022-07-26T01:54:48.248Z,19.29
2022-07-26T01:58:50.089Z,19.30
2022-07-26T02:02:51.666Z,18.93
2022-07-26T02:06:53.267Z,18.90
2022-07-26T02:11:03.355Z,18.89
2022-07-26T02:15:07.213Z,18.94
2022-07-26T02:19:09.667Z,18.47
2022-07-26T02:23:11.368Z,18.57
2022-07-26T02:27:12.878Z,18.62
2022-07-26T02:31:15.507Z,18.79
2022-07-26T02:35:17.295Z,18.49
2022-07-26T02:39:19.433Z,18.51
2022-07-26T02:43:20.911Z,18.49
2022-07-26T02:47:22.361Z,18.37
2022-07-26T02:51:23.811Z,18.28
2022-07-26T02:55:26.647Z,18.35
2022-07-26T02:59:28.114Z,18.18
2022-07-26T03:03:29.563Z,18.25
2022-07-26T03:07:31.461Z,18.27
2022-07-26T03:11:32.902Z,17.96
2022-07-26T03:15:34.626Z,18.16
2022-07-26T03:19:36.184Z,18.13
2022-07-26T03:23:37.750Z,18.16
2022-07-26T03:27:39.171Z,18.00
2022-07-26T03:31:40.711Z,17.88
2022-07-26T03:35:42.242Z,18.02
2022-07-26T03:39:46.147Z,17.78
2022-07-26T03:43:47.623Z,17.85
2022-07-26T03:47:49.144Z,17.97
2022-07-26T03:51:50.602Z,18.20
2022-07-26T03:56:11.169Z,18.14
2022-07-26T04:00:12.835Z,17.87
2022-07-26T04:04:17.730Z,17.83
2022-07-26T04:08:19.314Z,18.11
2022-07-26T04:12:20.792Z,18.06
2022-07-26T04:16:22.371Z,17.67
2022-07-26T04:20:24.003Z,17.82
2022-07-26T04:24:25.821Z,17.82
2022-07-26T04:28:28.938Z,17.78
2022-07-26T04:32:30.444Z,17.49
2022-07-26T04:36:31.902Z,17.74
2022-07-26T04:40:33.660Z,17.85
2022-07-26T04:44:35.135Z,17.78
2022-07-26T04:48:37.682Z,17.86
2022-07-26T04:52:39.967Z,18.15
2022-07-26T04:56:41.615Z,18.11
2022-07-26T05:01:08.445Z,17.62
2022-07-26T05:05:06.432Z,17.78
2022-07-26T05:09:08.890Z,18.03
2022-07-26T05:13:10.351Z,17.69
2022-07-26T05:17:12.131Z,17.92
2022-07-26T05:21:13.916Z,18.12
2022-07-26T05:25:15.412Z,17.74
2022-07-26T05:29:17.100Z,18.06
2022-07-26T05:33:18.651Z,17.65
2022-07-26T05:37:20.215Z,17.73
2022-07-26T05:41:22.432Z,17.84
2022-07-26T05:45:23.920Z,17.95
2022-07-26T05:49:26.026Z,18.04
2022-07-26T05:53:27.592Z,18.21
2022-07-26T05:57:29.118Z,18.19
2022-07-26T06:01:32.577Z,17.96
2022-07-26T06:05:34.410Z,18.22
2022-07-26T06:09:35.919Z,18.35
2022-07-26T06:13:37.410Z,18.53
2022-07-26T06:17:41.164Z,18.72
2022-07-26T06:21:42.781Z,18.61
2022-07-26T06:25:44.281Z,18.73
2022-07-26T06:29:48.477Z,19.00
2022-07-26T06:33:51.363Z,18.94
2022-07-26T06:37:52.802Z,19.08
2022-07-26T06:41:54.283Z,19.19
2022-07-26T06:45:55.802Z,18.86
2022-07-26T06:49:57.348Z,19.23
2022-07-26T06:53:58.894Z,19.07
2022-07-26T06:58:02.648Z,19.27
2022-07-26T07:02:04.683Z,19.49
2022-07-26T07:06:06.429Z,19.36
2022-07-26T07:10:09.146Z,19.29
2022-07-26T07:14:10.817Z,19.58
2022-07-26T07:18:12.528Z,19.77
2022-07-26T07:22:14.438Z,19.73
2022-07-26T07:26:15.878Z,19.87
2022-07-26T07:30:17.693Z,20.06
2022-07-26T07:34:22.667Z,19.85
2022-07-26T07:38:25.374Z,20.04
2022-07-26T07:42:26.836Z,20.21
2022-07-26T07:46:28.347Z,19.93
2022-07-26T07:50:29.971Z,20.25
2022-07-26T07:54:31.417Z,20.30
2022-07-26T07:58:34.249Z,20.56
2022-07-26T08:02:35.717Z,20.16
2022-07-26T08:06:37.208Z,20.60
2022-07-26T08:10:41.884Z,20.66
2022-07-26T08:14:53.646Z,20.78
2022-07-26T08:18:57.957Z,20.66
2022-07-26T08:22:59.814Z,21.05
2022-07-26T08:27:03.737Z,21.14
2022-07-26T08:31:05.707Z,20.77
2022-07-26T08:35:17.342Z,21.10
2022-07-26T08:39:21.378Z,21.30
2022-07-26T08:43:22.846Z,20.97
2022-07-26T08:47:39.890Z,20.77
2022-07-26T08:51:44.812Z,20.81
2022-07-26T09:00:26.947Z,21.37
2022-07-26T09:04:32.932Z,21.64
2022-07-26T09:08:37.152Z,21.17
2022-07-26T09:12:39.752Z,21.22
2022-07-26T09:16:43.016Z,21.74
2022-07-26T09:20:47.159Z,22.05
2022-07-26T09:24:49.697Z,21.45
2022-07-26T09:29:13.106Z,21.54
2022-07-26T09:33:15.053Z,21.16
2022-07-26T09:37:17.278Z,21.83
2022-07-26T09:41:30.207Z,22.27
2022-07-26T09:45:36.002Z,22.57
2022-07-26T09:49:40.690Z,22.61
2022-07-26T09:53:45.720Z,22.79
2022-07-26T09:57:47.662Z,23.11
2022-07-26T10:01:51.281Z,23.41
2022-07-26T10:05:53.081Z,23.12
2022-07-26T10:10:03.545Z,22.68
2022-07-26T10:14:32.894Z,22.56
2022-07-26T10:18:38.066Z,22.61
2022-07-26T10:22:45.785Z,21.97
2022-07-26T10:26:48.447Z,21.97
2022-07-26T10:30:50.058Z,22.15
2022-07-26T10:34:51.571Z,22.04
2022-07-26T10:39:06.988Z,22.13
2022-07-26T10:43:39.489Z,22.05
2022-07-26T10:47:35.253Z,22.31
2022-07-26T10:51:41.084Z,22.42
2022-07-26T10:55:47.665Z,23.06
2022-07-26T10:59:56.838Z,23.47
2022-07-26T11:03:58.620Z,23.26
2022-07-26T11:08:17.806Z,24.19
2022-07-26T11:12:20.199Z,23.31
2022-07-26T11:16:23.331Z,23.85
2022-07-26T11:20:29.603Z,24.12
2022-07-26T11:24:31.821Z,25.57
2022-07-26T11:28:50.292Z,25.43
2022-07-26T11:32:56.045Z,23.36
2022-07-26T11:36:59.309Z,23.30
2022-07-26T11:41:00.840Z,23.33
2022-07-26T11:45:02.380Z,23.57
2022-07-26T11:49:06.251Z,24.38
2022-07-26T11:53:21.296Z,23.61
2022-07-26T11:57:29.123Z,23.23
2022-07-26T12:01:30.874Z,23.49
2022-07-26T12:05:33.317Z,23.11
2022-07-26T12:09:39.211Z,23.31
2022-07-26T12:14:00.366Z,22.71
2022-07-26T12:18:02.010Z,22.47
2022-07-26T12:22:14.282Z,20.93
2022-07-26T12:26:34.885Z,20.38
2022-07-26T12:30:40.114Z,20.65
2022-07-26T12:34:54.047Z,20.63
2022-07-26T12:38:59.683Z,19.63
2022-07-26T12:43:02.874Z,20.32
2022-07-26T12:47:05.716Z,19.61
2022-07-26T12:51:07.421Z,20.05
2022-07-26T12:55:13.921Z,19.93
2022-07-26T12:59:17.623Z,19.94
2022-07-26T13:03:19.628Z,19.52
2022-07-26T13:07:21.272Z,19.73
2022-07-26T13:11:22.784Z,19.54
2022-07-26T13:15:24.266Z,19.70
2022-07-26T13:19:38.822Z,19.74
2022-07-26T13:23:40.368Z,19.07
2022-07-26T13:27:44.745Z,19.36
2022-07-26T13:31:47.015Z,19.68
2022-07-26T13:35:50.207Z,19.75
2022-07-26T13:39:52.046Z,20.22
2022-07-26T13:43:54.097Z,20.40
2022-07-26T13:47:55.551Z,20.54
2022-07-26T13:51:57.678Z,20.50
2022-07-26T13:55:59.166Z,20.52
2022-07-26T14:00:00.662Z,20.65
2022-07-26T14:04:03.614Z,20.80
2022-07-26T14:08:06.005Z,20.17
2022-07-26T14:12:07.685Z,20.02
2022-07-26T14:16:10.203Z,20.40
2022-07-26T14:20:11.812Z,20.33
2022-07-26T14:24:13.705Z,20.34
2022-07-26T14:28:15.349Z,20.49
2022-07-26T14:32:21.526Z,20.67
2022-07-26T14:36:23.772Z,20.83
2022-07-26T14:40:25.400Z,20.47
2022-07-26T14:44:27.295Z,20.70
2022-07-26T14:48:52.928Z,20.50
2022-07-26T14:52:50.784Z,21.01
2022-07-26T14:56:52.304Z,21.34
2022-07-26T15:00:54.003Z,20.91
2022-07-26T15:04:55.566Z,20.82
2022-07-26T15:08:57.148Z,21.00
2022-07-26T15:13:00.142Z,20.61
2022-07-26T15:17:01.693Z,20.89
2022-07-26T15:21:03.416Z,21.13
2022-07-26T15:25:05.567Z,21.81
2022-07-26T15:29:07.088Z,23.28
2022-07-26T15:33:08.625Z,24.05
2022-07-26T15:37:10.095Z,24.15
2022-07-26T15:41:13.655Z,24.98
2022-07-26T15:45:15.436Z,23.08
2022-07-26T15:49:18.061Z,22.10
2022-07-26T15:53:19.845Z,22.38
2022-07-26T15:57:21.631Z,22.12
2022-07-26T16:01:23.386Z,22.27
2022-07-26T16:05:25.189Z,23.00
2022-07-26T16:09:26.863Z,22.28
2022-07-26T16:13:28.543Z,21.96
2022-07-26T16:17:30.059Z,22.15
2022-07-26T16:21:32.067Z,22.28
2022-07-26T16:25:33.505Z,21.61
2022-07-26T16:29:35.080Z,21.12
2022-07-26T16:33:36.706Z,21.26
2022-07-26T16:37:49.476Z,21.55
2022-07-26T16:41:51.310Z,22.18
2022-07-26T16:45:52.938Z,21.89
2022-07-26T16:49:54.485Z,21.60
2022-07-26T16:53:55.987Z,21.21
2022-07-26T16:57:57.588Z,21.85
2022-07-26T17:02:02.161Z,21.25
2022-07-26T17:06:06.867Z,21.21
2022-07-26T17:10:09.842Z,21.79
2022-07-26T17:14:11.553Z,21.70
2022-07-26T17:18:13.130Z,21.07
2022-07-26T17:22:14.829Z,22.29
2022-07-26T17:26:18.045Z,22.74
2022-07-26T17:30:19.613Z,22.72
2022-07-26T17:34:21.219Z,21.71
2022-07-26T17:38:22.740Z,22.28
2022-07-26T17:42:24.917Z,21.17
2022-07-26T17:46:26.428Z,21.08
2022-07-26T17:50:43.434Z,21.20
2022-07-26T17:54:44.963Z,21.04
2022-07-26T17:58:46.448Z,20.93
2022-07-26T18:02:48.490Z,20.99
2022-07-26T18:06:50.263Z,20.71
2022-07-26T18:10:51.743Z,20.72
2022-07-26T18:14:53.216Z,20.94
2022-07-26T18:18:57.651Z,20.91
2022-07-26T18:22:59.510Z,20.78
2022-07-26T18:27:01.015Z,20.78
2022-07-26T18:31:02.656Z,20.63
2022-07-26T18:35:05.916Z,20.48
2022-07-26T18:39:07.655Z,20.21
2022-07-26T18:43:09.247Z,20.29
2022-07-26T18:47:10.783Z,20.18
2022-07-26T18:51:12.275Z,19.90
2022-07-26T18:55:15.240Z,19.88
2022-07-26T18:59:16.688Z,19.78
2022-07-26T19:03:19.686Z,19.89
2022-07-26T19:07:21.191Z,19.75
2022-07-26T19:11:22.712Z,19.51
2022-07-26T19:15:24.225Z,19.37
2022-07-26T19:19:25.707Z,19.52
2022-07-26T19:23:27.272Z,19.24
2022-07-26T19:27:28.981Z,19.30
2022-07-26T19:31:30.568Z,19.09
2022-07-26T19:35:32.136Z,19.07
2022-07-26T19:39:33.762Z,19.01
2022-07-26T19:43:35.730Z,19.09
2022-07-26T19:47:37.728Z,19.06
2022-07-26T19:51:39.635Z,18.73
2022-07-26T19:55:42.481Z,18.80
2022-07-26T19:59:44.259Z,18.77
2022-07-26T20:03:45.738Z,18.80
2022-07-26T20:07:48.902Z,18.57
2022-07-26T20:11:51.053Z,18.52
2022-07-26T20:15:52.674Z,18.31
2022-07-26T20:19:54.203Z,18.26
2022-07-26T20:23:55.627Z,18.43
2022-07-26T20:27:57.076Z,18.12
2022-07-26T20:31:58.665Z,18.42
2022-07-26T20:36:01.319Z,17.90
2022-07-26T20:40:03.704Z,18.17
2022-07-26T20:44:05.461Z,18.25
2022-07-26T20:48:07.429Z,17.91
2022-07-26T20:52:09.069Z,18.18
2022-07-26T20:56:10.559Z,18.26
2022-07-26T21:00:12.673Z,18.12
2022-07-26T21:04:14.237Z,18.07
2022-07-26T21:08:16.064Z,17.89
2022-07-26T21:12:17.646Z,17.97
2022-07-26T21:16:19.252Z,17.77
2022-07-26T21:20:21.455Z,17.59
2022-07-26T21:24:22.974Z,17.53
2022-07-26T21:28:24.563Z,17.48
2022-07-26T21:32:31.155Z,17.43
2022-07-26T21:36:34.150Z,17.42
2022-07-26T21:40:35.730Z,17.37
2022-07-26T21:44:37.204Z,17.32
2022-07-26T21:48:38.777Z,17.35
2022-07-26T21:52:40.712Z,17.09
2022-07-26T21:56:42.154Z,17.29
2022-07-26T22:00:43.853Z,17.11
2022-07-26T22:04:45.579Z,17.25
2022-07-26T22:08:47.104Z,17.17
2022-07-26T22:12:48.622Z,17.25
2022-07-26T22:16:50.217Z,17.21
2022-07-26T22:20:52.153Z,17.22
2022-07-26T22:24:53.615Z,17.07
2022-07-26T22:28:55.138Z,17.17
2022-07-26T22:37:01.833Z,17.14
2022-07-26T22:41:03.341Z,17.13
2022-07-26T22:45:09.912Z,17.19
2022-07-26T22:49:11.951Z,17.14
2022-07-26T22:53:16.655Z,16.98
2022-07-26T22:57:18.142Z,17.01
2022-07-26T23:01:19.684Z,17.06
2022-07-26T23:05:21.230Z,16.89
2022-07-26T23:09:27.082Z,16.79
2022-07-26T23:13:28.530Z,16.75
2022-07-26T23:17:30.078Z,17.00
2022-07-26T23:21:31.540Z,16.81
2022-07-26T23:25:32.972Z,16.79
2022-07-26T23:29:34.644Z,16.68
2022-07-26T23:33:51.731Z,16.80
2022-07-26T23:37:55.073Z,16.49
2022-07-26T23:41:56.596Z,16.59
2022-07-26T23:45:58.046Z,16.50
2022-07-26T23:49:59.506Z,16.35
2022-07-26T23:54:01.043Z,16.30
2022-07-26T23:58:02.482Z,16.31
